Time;durP1;ratioP1;P1;durP2;ratioP2;P2;SDS_P1;SDS_P2;PMS_P1;PMS_P2;Temp;Humidity;BMP_temperature;BMP_pressure;BME280_temperature;BME280_humidity;BME280_pressure;Samples;Min_cycle;Max_cycle;Signal;HPM_P1;HPM_P2
2021/07/15 00:00:35;;;;;;;1.07;0.80;;;15.30;99.90;;;;;;5063411;28;20451;-73
2021/07/15 00:03:04;;;;;;;1.00;0.80;;;15.30;99.90;;;;;;5144317;22;20497;-72
2021/07/15 00:05:32;;;;;;;0.90;0.80;;;15.30;99.90;;;;;;5081202;28;20461;-72
2021/07/15 00:08:00;;;;;;;1.10;0.83;;;15.30;99.90;;;;;;5077546;28;20504;-72
2021/07/15 00:10:34;;;;;;;1.20;0.77;;;15.30;99.90;;;;;;5077600;28;20857;-72
2021/07/15 00:13:01;;;;;;;1.17;0.90;;;15.20;99.90;;;;;;5080513;28;20454;-71
2021/07/15 00:15:30;;;;;;;0.90;0.70;;;15.20;99.90;;;;;;5089113;28;20481;-72
2021/07/15 00:17:58;;;;;;;1.00;0.80;;;15.20;99.90;;;;;;5088348;28;20457;-72
2021/07/15 00:20:26;;;;;;;0.80;0.80;;;15.20;99.90;;;;;;5088453;28;20775;-73
2021/07/15 00:22:53;;;;;;;3.00;0.90;;;15.10;99.90;;;;;;5088681;28;20461;-72
2021/07/15 00:25:21;;;;;;;1.10;0.70;;;15.10;99.90;;;;;;5088732;28;20748;-73
2021/07/15 00:27:50;;;;;;;0.90;0.80;;;15.10;99.90;;;;;;5089053;28;20461;-73
2021/07/15 00:30:17;;;;;;;1.17;0.80;;;15.10;99.90;;;;;;5087915;28;20489;-72
2021/07/15 00:32:45;;;;;;;0.90;0.73;;;15.00;99.90;;;;;;5088707;28;20458;-71
2021/07/15 00:35:12;;;;;;;0.90;0.70;;;15.00;99.90;;;;;;5088243;28;20481;-72
2021/07/15 00:37:40;;;;;;;1.00;0.80;;;15.10;99.90;;;;;;5088749;28;20480;-72
2021/07/15 00:40:10;;;;;;;1.77;0.90;;;15.00;99.90;;;;;;5087779;28;20498;-72
2021/07/15 00:42:38;;;;;;;0.80;0.70;;;15.00;99.90;;;;;;5088998;28;20457;-72
2021/07/15 00:45:09;;;;;;;2.30;0.87;;;15.00;99.90;;;;;;5088105;28;20505;-73
2021/07/15 00:47:35;;;;;;;0.90;0.60;;;15.00;99.90;;;;;;5088812;28;20878;-71
2021/07/15 00:50:04;;;;;;;0.80;0.70;;;15.00;99.90;;;;;;5087920;28;21010;-72
2021/07/15 00:52:31;;;;;;;1.00;0.73;;;15.00;99.90;;;;;;5088686;28;20465;-72
2021/07/15 00:54:58;;;;;;;1.00;0.70;;;15.00;99.90;;;;;;5088308;28;20481;-72
2021/07/15 00:57:25;;;;;;;0.90;0.70;;;14.90;99.90;;;;;;5088477;28;20480;-72
2021/07/15 00:59:53;;;;;;;0.90;0.80;;;14.90;99.90;;;;;;5088369;28;20523;-71
2021/07/15 01:02:21;;;;;;;0.93;0.70;;;14.90;99.90;;;;;;5087923;28;20473;-73
2021/07/15 01:04:48;;;;;;;0.80;0.70;;;14.80;99.90;;;;;;5088845;28;20996;-72
2021/07/15 01:07:14;;;;;;;0.80;0.70;;;14.80;99.90;;;;;;5092286;28;20454;-72
2021/07/15 01:09:41;;;;;;;0.80;0.70;;;14.80;99.90;;;;;;5074457;28;20486;-72
2021/07/15 01:12:17;;;;;;;1.00;0.90;;;14.80;99.90;;;;;;5071555;28;20465;-72
2021/07/15 01:14:55;;;;;;;1.00;0.90;;;14.70;99.90;;;;;;5071540;28;20483;-71
2021/07/15 01:17:29;;;;;;;3.80;0.83;;;14.80;99.90;;;;;;5071463;28;20477;-72
2021/07/15 01:20:19;;;;;;;2.00;0.70;;;14.70;99.90;;;;;;5071060;28;20477;-73
2021/07/15 01:22:53;;;;;;;0.80;0.70;;;14.70;99.90;;;;;;5071869;28;20465;-72
2021/07/15 01:26:08;;;;;;;1.67;0.70;;;14.70;99.90;;;;;;5071316;28;20519;-71
2021/07/15 01:29:03;;;;;;;1.67;0.80;;;14.70;99.90;;;;;;5029929;28;20464;-73
2021/07/15 01:31:35;;;;;;;2.80;0.80;;;14.70;99.90;;;;;;5047323;28;20915;-72
2021/07/15 01:34:02;;;;;;;0.80;0.70;;;14.60;99.90;;;;;;5096900;28;20476;-72
2021/07/15 01:36:34;;;;;;;2.30;1.33;;;14.60;99.90;;;;;;5111836;28;20461;-72
2021/07/15 01:39:07;;;;;;;1.53;0.70;;;14.60;99.90;;;;;;5111858;28;20982;-73
2021/07/15 01:41:38;;;;;;;0.80;0.70;;;14.60;99.90;;;;;;5111996;28;20463;-72
2021/07/15 01:44:09;;;;;;;1.00;0.80;;;14.60;99.90;;;;;;5111510;28;20872;-72
2021/07/15 01:46:38;;;;;;;0.90;0.70;;;14.60;99.90;;;;;;5112144;28;20457;-73
2021/07/15 01:49:07;;;;;;;0.70;0.70;;;14.50;99.90;;;;;;5111138;28;20476;-72
2021/07/15 01:51:34;;;;;;;2.20;0.90;;;14.50;99.90;;;;;;5111712;28;20463;-72
2021/07/15 01:54:01;;;;;;;0.90;0.70;;;14.50;99.90;;;;;;5111203;28;20481;-72
2021/07/15 01:56:29;;;;;;;0.80;0.70;;;14.50;99.90;;;;;;5111500;28;20457;-71
2021/07/15 01:58:57;;;;;;;1.17;0.80;;;14.50;99.90;;;;;;5111460;28;20456;-72
2021/07/15 02:01:26;;;;;;;1.00;0.80;;;14.50;99.90;;;;;;5110733;28;20460;-72
2021/07/15 02:03:58;;;;;;;0.80;0.70;;;14.50;99.90;;;;;;5111325;28;20488;-72
2021/07/15 02:06:26;;;;;;;0.90;0.70;;;14.50;99.90;;;;;;5111226;28;20460;-72
2021/07/15 02:08:54;;;;;;;3.23;0.90;;;14.50;99.90;;;;;;5111518;28;20537;-72
2021/07/15 02:11:22;;;;;;;1.90;0.70;;;14.50;99.90;;;;;;5110779;28;20460;-72
2021/07/15 02:13:50;;;;;;;1.00;0.87;;;14.50;99.90;;;;;;5111226;28;20510;-72
2021/07/15 02:16:18;;;;;;;1.17;0.70;;;14.50;99.90;;;;;;5111166;28;20877;-72
2021/07/15 02:18:46;;;;;;;1.00;0.73;;;14.50;99.90;;;;;;5111057;28;20466;-72
2021/07/15 02:21:16;;;;;;;0.80;0.70;;;14.50;99.90;;;;;;5110849;28;20480;-72
2021/07/15 02:23:44;;;;;;;0.70;0.60;;;14.50;99.90;;;;;;5110984;28;20484;-71
2021/07/15 02:26:13;;;;;;;1.33;0.70;;;14.40;99.90;;;;;;5110742;28;21004;-72
2021/07/15 02:28:41;;;;;;;0.90;0.80;;;14.40;99.90;;;;;;5111117;28;20457;-72
2021/07/15 02:31:12;;;;;;;0.80;0.70;;;14.40;99.90;;;;;;5109874;28;20481;-73
2021/07/15 02:33:44;;;;;;;0.90;0.73;;;14.40;99.90;;;;;;5110823;28;20491;-72
2021/07/15 02:36:11;;;;;;;0.90;0.70;;;14.30;99.90;;;;;;5110458;28;20464;-72
2021/07/15 02:38:41;;;;;;;0.80;0.60;;;14.30;99.90;;;;;;5111054;28;20468;-72
2021/07/15 02:41:08;;;;;;;0.77;0.67;;;14.30;99.90;;;;;;5109943;28;20464;-72
2021/07/15 02:43:34;;;;;;;1.37;1.00;;;14.30;99.90;;;;;;5110549;28;20467;-72
2021/07/15 02:46:01;;;;;;;1.73;1.00;;;14.40;99.90;;;;;;5110434;28;20506;-72
2021/07/15 02:48:28;;;;;;;1.00;0.80;;;14.40;99.90;;;;;;5110434;28;20457;-72
2021/07/15 02:50:55;;;;;;;0.80;0.70;;;14.40;99.90;;;;;;5109920;28;20492;-72
2021/07/15 02:53:21;;;;;;;3.40;0.70;;;14.40;99.90;;;;;;5110262;28;20825;-72
2021/07/15 02:56:01;;;;;;;0.97;0.70;;;14.40;99.90;;;;;;5110479;28;20517;-71
2021/07/15 02:58:34;;;;;;;1.10;0.80;;;14.50;99.90;;;;;;5110462;28;20448;-72
2021/07/15 03:01:03;;;;;;;0.80;0.70;;;14.50;99.90;;;;;;5109795;28;20858;-72
2021/07/15 03:03:38;;;;;;;3.33;0.80;;;14.50;99.90;;;;;;5110060;28;20468;-72
2021/07/15 03:06:09;;;;;;;0.90;0.73;;;14.50;99.90;;;;;;5109817;28;20468;-72
2021/07/15 03:08:44;;;;;;;0.80;0.67;;;14.50;99.90;;;;;;5110312;28;20469;-72
2021/07/15 03:11:13;;;;;;;1.67;0.80;;;14.60;99.90;;;;;;5109177;28;20486;-72
2021/07/15 03:13:41;;;;;;;0.80;0.70;;;14.50;99.90;;;;;;5110220;28;20472;-72
2021/07/15 03:16:08;;;;;;;2.10;0.80;;;14.50;99.90;;;;;;5109554;28;20959;-71
2021/07/15 03:18:37;;;;;;;0.90;0.80;;;14.50;99.90;;;;;;5110113;28;20521;-72
2021/07/15 03:21:06;;;;;;;2.67;1.07;;;14.50;99.90;;;;;;5109242;28;20555;-72
2021/07/15 03:23:36;;;;;;;1.10;0.97;;;14.50;99.90;;;;;;5109537;28;20540;-72
2021/07/15 03:26:04;;;;;;;1.67;0.80;;;14.50;99.90;;;;;;5109943;28;20460;-72
2021/07/15 03:28:35;;;;;;;0.90;0.70;;;14.50;99.90;;;;;;5109385;28;20861;-72
2021/07/15 03:31:05;;;;;;;1.93;0.70;;;14.40;99.90;;;;;;5108942;28;20487;-73
2021/07/15 03:33:34;;;;;;;0.90;0.70;;;14.40;99.90;;;;;;5105617;28;20457;-72
2021/07/15 03:36:03;;;;;;;1.00;0.70;;;14.40;99.90;;;;;;5090855;28;20834;-72
2021/07/15 03:38:30;;;;;;;2.33;0.90;;;14.40;99.90;;;;;;5088683;28;20982;-72
2021/07/15 03:40:59;;;;;;;0.70;0.60;;;14.40;99.90;;;;;;5089030;28;20455;-72
2021/07/15 03:43:26;;;;;;;0.70;0.60;;;14.50;99.90;;;;;;5077126;28;20458;-72
2021/07/15 03:45:55;;;;;;;0.80;0.70;;;14.50;99.90;;;;;;5077672;28;20454;-72
2021/07/15 03:48:24;;;;;;;2.43;0.80;;;14.50;99.90;;;;;;5089839;28;20467;-70
2021/07/15 03:50:51;;;;;;;0.93;0.70;;;14.50;99.90;;;;;;5087052;28;20521;-72
2021/07/15 03:53:18;;;;;;;1.53;0.80;;;14.50;99.90;;;;;;5085760;28;20483;-71
2021/07/15 03:55:47;;;;;;;1.10;0.70;;;14.60;99.90;;;;;;5076895;28;20459;-73
2021/07/15 03:58:14;;;;;;;2.03;0.90;;;14.60;99.90;;;;;;5077098;28;20824;-71
2021/07/15 04:00:45;;;;;;;1.97;0.70;;;14.60;99.90;;;;;;5083933;28;20455;-69
2021/07/15 04:03:18;;;;;;;3.93;0.87;;;14.60;99.90;;;;;;5067584;28;20519;-70
2021/07/15 04:05:46;;;;;;;1.50;0.67;;;14.60;99.90;;;;;;5068631;28;20990;-68
2021/07/15 04:08:15;;;;;;;1.90;0.70;;;14.60;99.90;;;;;;5068149;28;20852;-70
2021/07/15 04:10:44;;;;;;;3.50;0.70;;;14.60;99.90;;;;;;5067800;28;20551;-69
2021/07/15 04:13:14;;;;;;;3.13;1.10;;;14.70;99.90;;;;;;5068111;28;20888;-70
2021/07/15 04:16:06;;;;;;;1.07;0.70;;;14.70;99.90;;;;;;5096809;28;20481;-70
2021/07/15 04:18:39;;;;;;;2.60;0.80;;;14.70;99.90;;;;;;5076819;28;20922;-70
2021/07/15 04:21:07;;;;;;;0.90;0.70;;;14.70;99.90;;;;;;5075943;28;20837;-73
2021/07/15 04:23:35;;;;;;;0.80;0.70;;;14.70;99.90;;;;;;5076693;28;20484;-73
2021/07/15 04:26:03;;;;;;;1.70;0.90;;;14.80;99.90;;;;;;5079728;28;20456;-73
2021/07/15 04:28:30;;;;;;;1.03;0.80;;;14.80;99.90;;;;;;5088829;28;20458;-72
2021/07/15 04:31:00;;;;;;;1.77;0.70;;;14.80;99.90;;;;;;5086693;28;20980;-71
2021/07/15 04:33:28;;;;;;;1.57;0.90;;;14.80;99.90;;;;;;5088467;28;20453;-73
2021/07/15 04:35:57;;;;;;;1.00;0.80;;;14.90;99.90;;;;;;5088845;28;20469;-72
2021/07/15 04:38:24;;;;;;;1.20;0.70;;;14.90;99.90;;;;;;5088628;28;20458;-72
2021/07/15 04:40:51;;;;;;;1.97;0.77;;;14.80;99.90;;;;;;5092140;28;20453;-72
2021/07/15 04:43:19;;;;;;;1.00;0.90;;;14.90;99.90;;;;;;5092415;28;20461;-72
2021/07/15 04:45:49;;;;;;;1.47;0.87;;;14.90;99.90;;;;;;5092570;28;20922;-71
2021/07/15 04:48:17;;;;;;;0.80;0.80;;;14.90;99.90;;;;;;5092421;28;20453;-72
2021/07/15 04:50:45;;;;;;;1.10;0.80;;;14.90;99.90;;;;;;5092028;28;20488;-72
2021/07/15 04:53:19;;;;;;;0.90;0.77;;;14.90;99.90;;;;;;5092228;28;20461;-72
2021/07/15 04:55:47;;;;;;;0.80;0.70;;;14.90;99.90;;;;;;5092575;28;20534;-72
2021/07/15 04:58:15;;;;;;;0.80;0.70;;;14.90;99.90;;;;;;5092012;28;20831;-72
2021/07/15 05:00:42;;;;;;;2.17;0.70;;;14.90;99.90;;;;;;5092056;28;20826;-72
2021/07/15 05:03:26;;;;;;;0.80;0.70;;;14.90;99.90;;;;;;5091873;28;20496;-72
2021/07/15 05:05:53;;;;;;;1.47;0.70;;;14.90;99.90;;;;;;5092386;28;20840;-72
2021/07/15 05:08:21;;;;;;;0.80;0.70;;;14.90;99.90;;;;;;5091824;28;20457;-72
2021/07/15 05:10:48;;;;;;;2.13;0.80;;;14.90;99.90;;;;;;5092208;28;21171;-72
2021/07/15 05:13:14;;;;;;;0.77;0.70;;;14.90;99.90;;;;;;5091739;28;20488;-72
2021/07/15 05:15:41;;;;;;;1.10;0.80;;;15.00;99.90;;;;;;5091975;28;20461;-72
2021/07/15 05:18:08;;;;;;;2.90;0.70;;;14.90;99.90;;;;;;5091814;28;20472;-73
2021/07/15 05:20:35;;;;;;;1.30;0.70;;;14.90;99.90;;;;;;5091487;28;20446;-71
2021/07/15 05:23:01;;;;;;;0.90;0.73;;;14.90;99.90;;;;;;5092042;28;20519;-71
2021/07/15 05:25:29;;;;;;;1.67;0.70;;;14.90;99.90;;;;;;5092209;28;20485;-72
2021/07/15 05:27:56;;;;;;;0.70;0.60;;;15.00;99.90;;;;;;5089070;28;20874;-72
2021/07/15 05:30:23;;;;;;;1.13;0.93;;;15.00;99.90;;;;;;5088992;28;20539;-72
2021/07/15 05:32:50;;;;;;;3.90;0.73;;;15.00;99.90;;;;;;5081936;28;20969;-70
2021/07/15 05:35:17;;;;;;;1.60;0.87;;;15.00;99.90;;;;;;5089686;28;20902;-70
2021/07/15 05:37:43;;;;;;;0.80;0.60;;;15.10;99.90;;;;;;5090946;28;20453;-72
2021/07/15 05:40:11;;;;;;;0.93;0.83;;;15.10;99.90;;;;;;5092604;28;20518;-72
2021/07/15 05:42:39;;;;;;;1.83;0.73;;;15.10;99.90;;;;;;5077814;28;20474;-71
2021/07/15 05:45:07;;;;;;;1.00;0.70;;;15.20;99.90;;;;;;5090958;28;20483;-72
2021/07/15 05:47:34;;;;;;;0.90;0.67;;;15.20;99.90;;;;;;5086259;28;20455;-72
2021/07/15 05:50:01;;;;;;;1.13;0.80;;;15.20;99.90;;;;;;5085823;28;20454;-71
2021/07/15 05:52:28;;;;;;;0.90;0.70;;;15.20;99.90;;;;;;5101234;28;20472;-72
2021/07/15 05:54:57;;;;;;;1.57;0.70;;;15.20;99.90;;;;;;5075939;28;20474;-73
2021/07/15 05:57:23;;;;;;;0.80;0.70;;;15.20;99.90;;;;;;5077658;28;20461;-72
2021/07/15 05:59:51;;;;;;;0.90;0.80;;;15.30;99.90;;;;;;5095255;28;20456;-72
2021/07/15 06:02:18;;;;;;;1.20;0.70;;;15.30;99.90;;;;;;5082783;28;20976;-71
2021/07/15 06:04:46;;;;;;;1.80;0.70;;;15.30;99.90;;;;;;5140210;22;20493;-76
2021/07/15 06:07:13;;;;;;;1.10;0.77;;;15.30;99.90;;;;;;5075070;28;20512;-76
2021/07/15 06:09:39;;;;;;;0.70;0.60;;;15.30;99.90;;;;;;5070441;28;20450;-77
2021/07/15 06:12:06;;;;;;;1.03;0.90;;;15.40;99.90;;;;;;5070574;28;20490;-77
2021/07/15 06:14:34;;;;;;;0.80;0.60;;;15.40;99.90;;;;;;5070967;28;20482;-77
2021/07/15 06:17:03;;;;;;;1.10;0.70;;;15.40;99.90;;;;;;5070416;28;20852;-76
2021/07/15 06:19:29;;;;;;;0.90;0.70;;;15.40;99.90;;;;;;5070285;28;20668;-77
2021/07/15 06:21:56;;;;;;;2.07;0.70;;;15.40;99.90;;;;;;5070598;28;20462;-76
2021/07/15 06:24:23;;;;;;;1.03;0.80;;;15.50;99.90;;;;;;5070208;28;21213;-76
2021/07/15 06:26:49;;;;;;;1.30;0.90;;;15.50;99.90;;;;;;5070641;28;20458;-75
2021/07/15 06:29:17;;;;;;;1.47;0.80;;;15.50;99.90;;;;;;5069846;28;20462;-76
2021/07/15 06:31:43;;;;;;;1.00;0.70;;;15.60;99.90;;;;;;5070840;28;20482;-75
2021/07/15 06:34:11;;;;;;;1.10;0.70;;;15.60;99.90;;;;;;5070367;28;20486;-77
2021/07/15 06:36:43;;;;;;;1.73;1.00;;;15.70;99.90;;;;;;5070373;28;20566;-77
2021/07/15 06:39:10;;;;;;;1.57;0.77;;;15.70;99.90;;;;;;5069714;28;20839;-75
2021/07/15 06:41:36;;;;;;;1.00;0.77;;;15.70;99.90;;;;;;5070494;28;20462;-76
2021/07/15 06:44:04;;;;;;;2.10;0.80;;;15.80;99.90;;;;;;5070079;28;20478;-77
2021/07/15 06:46:33;;;;;;;1.40;0.90;;;15.80;99.90;;;;;;5070303;28;20467;-76
2021/07/15 06:49:00;;;;;;;0.90;0.73;;;15.80;99.90;;;;;;5070064;28;20556;-77
2021/07/15 06:51:28;;;;;;;1.37;0.80;;;15.90;99.90;;;;;;5069971;28;20486;-77
2021/07/15 06:53:54;;;;;;;1.00;0.90;;;16.00;99.90;;;;;;5069981;28;20536;-76
2021/07/15 06:56:21;;;;;;;1.20;0.90;;;16.00;99.90;;;;;;5069904;28;20900;-76
2021/07/15 06:58:48;;;;;;;1.17;0.80;;;16.00;99.90;;;;;;5069742;28;20458;-75
2021/07/15 07:01:15;;;;;;;1.53;0.93;;;16.10;99.90;;;;;;5069145;28;20466;-77
2021/07/15 07:03:41;;;;;;;1.53;0.90;;;16.10;99.90;;;;;;5068593;28;20490;-76
2021/07/15 07:06:08;;;;;;;0.80;0.73;;;16.10;99.90;;;;;;5069494;28;21276;-76
2021/07/15 07:08:36;;;;;;;2.10;0.90;;;16.10;99.90;;;;;;5069468;28;20458;-76
2021/07/15 07:11:03;;;;;;;2.23;0.90;;;16.20;99.90;;;;;;5068523;28;20494;-75
2021/07/15 07:13:29;;;;;;;1.00;0.90;;;16.20;99.90;;;;;;5069470;28;20455;-76
2021/07/15 07:15:56;;;;;;;1.73;0.90;;;16.20;99.90;;;;;;5069232;28;20470;-76
2021/07/15 07:18:23;;;;;;;1.93;1.10;;;16.20;99.90;;;;;;5069219;28;20837;-75
2021/07/15 07:20:50;;;;;;;1.47;0.90;;;16.30;99.90;;;;;;5068790;28;20454;-76
2021/07/15 07:23:17;;;;;;;1.63;0.93;;;16.30;99.90;;;;;;5068801;28;20454;-76
2021/07/15 07:25:45;;;;;;;2.07;1.07;;;16.30;99.90;;;;;;5069417;28;20813;-76
2021/07/15 07:28:13;;;;;;;4.40;1.20;;;16.40;99.90;;;;;;5068928;28;20463;-75
2021/07/15 07:30:40;;;;;;;1.50;1.10;;;16.30;99.90;;;;;;5068789;28;20968;-75
2021/07/15 07:33:07;;;;;;;2.33;1.00;;;16.30;99.90;;;;;;5068619;28;20466;-76
2021/07/15 07:35:34;;;;;;;1.00;0.90;;;16.30;99.90;;;;;;5068982;28;20493;-76
2021/07/15 07:38:01;;;;;;;1.70;0.87;;;16.40;99.90;;;;;;5068877;28;20490;-76
2021/07/15 07:40:27;;;;;;;1.10;0.90;;;16.40;99.90;;;;;;5068469;28;20970;-76
2021/07/15 07:42:55;;;;;;;1.17;1.00;;;16.50;99.90;;;;;;5069119;28;20529;-75
2021/07/15 07:45:22;;;;;;;1.00;0.70;;;16.40;99.90;;;;;;5068543;28;21011;-77
2021/07/15 07:47:49;;;;;;;1.70;0.73;;;16.40;99.90;;;;;;5069395;28;20977;-73
2021/07/15 07:50:16;;;;;;;1.13;0.80;;;16.40;99.90;;;;;;5069112;28;20463;-75
2021/07/15 07:52:43;;;;;;;1.33;0.73;;;16.40;99.90;;;;;;5069036;28;20585;-75
2021/07/15 07:55:12;;;;;;;2.10;1.10;;;16.40;99.90;;;;;;5062373;28;21027;-74
2021/07/15 07:57:39;;;;;;;2.07;1.00;;;16.40;99.90;;;;;;5067402;28;20698;-75
2021/07/15 08:00:10;;;;;;;1.63;0.80;;;16.40;99.90;;;;;;5066624;28;20458;-74
2021/07/15 08:02:37;;;;;;;2.23;1.20;;;16.40;99.90;;;;;;5066828;28;20455;-74
2021/07/15 08:05:05;;;;;;;2.30;0.87;;;16.40;99.90;;;;;;5067990;28;20485;-74
2021/07/15 08:07:33;;;;;;;2.80;0.90;;;16.50;99.90;;;;;;5068021;28;20568;-74
2021/07/15 08:10:00;;;;;;;1.70;1.00;;;16.50;99.90;;;;;;5066916;28;20458;-73
2021/07/15 08:12:27;;;;;;;1.57;0.70;;;16.50;99.90;;;;;;5067922;28;21008;-74
2021/07/15 08:14:54;;;;;;;1.77;1.00;;;16.60;99.90;;;;;;5067374;28;20540;-74
2021/07/15 08:17:23;;;;;;;1.80;0.90;;;16.70;99.90;;;;;;5066577;28;20484;-73
2021/07/15 08:19:50;;;;;;;3.00;1.00;;;16.80;99.90;;;;;;5067370;28;20531;-74
2021/07/15 08:22:17;;;;;;;0.90;0.80;;;16.90;99.90;;;;;;5068214;28;21036;-74
2021/07/15 08:24:44;;;;;;;1.20;0.90;;;16.90;99.90;;;;;;5069498;28;20474;-74
2021/07/15 08:27:11;;;;;;;2.37;1.00;;;17.00;99.90;;;;;;5067106;28;20469;-74
2021/07/15 08:29:39;;;;;;;0.80;0.70;;;17.00;99.90;;;;;;5067487;28;20472;-74
2021/07/15 08:32:07;;;;;;;1.00;0.80;;;17.00;99.90;;;;;;5066763;28;20875;-73
2021/07/15 08:34:36;;;;;;;1.87;0.73;;;17.00;99.90;;;;;;5068046;28;20489;-74
2021/07/15 08:37:03;;;;;;;2.10;0.93;;;17.00;99.90;;;;;;5067514;28;20847;-74
2021/07/15 08:39:31;;;;;;;1.63;0.80;;;17.00;99.90;;;;;;5067627;28;20467;-70
2021/07/15 08:42:02;;;;;;;0.90;0.80;;;17.00;99.90;;;;;;5067766;28;20459;-73
2021/07/15 08:44:30;;;;;;;1.50;0.87;;;17.10;99.90;;;;;;5067784;28;20592;-74
2021/07/15 08:47:01;;;;;;;1.73;0.80;;;17.10;99.90;;;;;;5067345;28;20474;-72
2021/07/15 08:49:28;;;;;;;1.20;0.80;;;17.10;99.90;;;;;;5066828;28;21166;-74
2021/07/15 08:51:57;;;;;;;1.00;0.90;;;17.10;99.90;;;;;;5069306;28;20599;-71
2021/07/15 08:54:33;;;;;;;1.20;0.90;;;17.10;99.90;;;;;;5067845;28;20482;-72
2021/07/15 08:56:59;;;;;;;1.10;0.70;;;17.10;99.90;;;;;;5068081;28;20979;-72
2021/07/15 08:59:27;;;;;;;0.97;0.87;;;17.00;99.90;;;;;;5067047;28;20465;-72
2021/07/15 09:01:55;;;;;;;3.70;1.00;;;17.00;99.90;;;;;;5066609;28;20513;-70
2021/07/15 09:04:23;;;;;;;2.13;0.93;;;17.00;99.90;;;;;;5067094;28;20498;-71
2021/07/15 09:06:51;;;;;;;1.00;0.83;;;17.00;99.90;;;;;;5066921;28;20462;-74
2021/07/15 09:09:20;;;;;;;1.73;0.90;;;17.00;99.90;;;;;;5065865;28;20470;-72
2021/07/15 09:11:47;;;;;;;1.20;0.87;;;17.00;99.90;;;;;;5065322;28;20478;-74
2021/07/15 09:14:17;;;;;;;4.00;0.90;;;17.00;99.90;;;;;;5066232;28;20492;-74
2021/07/15 09:16:48;;;;;;;5.43;0.97;;;16.90;99.90;;;;;;5066664;28;20868;-74
2021/07/15 09:19:16;;;;;;;1.40;0.80;;;16.90;99.90;;;;;;5066472;28;20466;-73
2021/07/15 09:21:44;;;;;;;1.47;0.97;;;16.80;99.90;;;;;;5066648;28;20515;-74
2021/07/15 09:24:33;;;;;;;2.40;1.07;;;16.80;99.90;;;;;;5066234;28;20485;-74
2021/07/15 09:27:10;;;;;;;1.10;0.77;;;16.80;99.90;;;;;;5069009;28;20549;-74
2021/07/15 09:29:41;;;;;;;0.97;0.87;;;16.80;99.90;;;;;;5070017;28;20472;-74
2021/07/15 09:32:08;;;;;;;1.37;0.77;;;16.80;99.90;;;;;;5069955;28;20482;-74
2021/07/15 09:34:39;;;;;;;2.67;1.00;;;16.80;99.90;;;;;;5069920;28;20474;-74
2021/07/15 09:37:15;;;;;;;0.90;0.80;;;16.80;99.90;;;;;;5070281;28;20465;-74
2021/07/15 09:39:46;;;;;;;2.90;1.07;;;16.80;99.90;;;;;;5079525;28;21011;-73
2021/07/15 09:42:25;;;;;;;0.97;0.83;;;16.90;99.90;;;;;;5076582;28;20447;-74
2021/07/15 09:44:55;;;;;;;1.17;0.93;;;16.90;99.90;;;;;;5075905;28;20497;-73
2021/07/15 09:47:36;;;;;;;1.10;0.90;;;17.00;99.90;;;;;;5078551;28;20457;-74
2021/07/15 09:50:27;;;;;;;1.20;1.10;;;17.10;99.90;;;;;;5078286;28;20775;-74
2021/07/15 09:53:14;;;;;;;1.13;0.93;;;17.20;99.90;;;;;;5075537;28;21009;-73
2021/07/15 09:55:45;;;;;;;1.57;1.40;;;17.20;99.90;;;;;;5078428;28;20474;-74
2021/07/15 09:58:15;;;;;;;1.60;1.00;;;17.30;99.90;;;;;;5075378;28;20547;-73
2021/07/15 10:00:46;;;;;;;1.00;0.80;;;17.30;99.90;;;;;;5078118;28;20460;-73
2021/07/15 10:03:16;;;;;;;1.03;0.90;;;17.30;99.90;;;;;;5079445;28;20825;-74
2021/07/15 10:05:53;;;;;;;1.90;1.00;;;17.30;99.90;;;;;;5080412;28;20989;-74
2021/07/15 10:08:26;;;;;;;1.20;0.80;;;17.30;99.90;;;;;;5077364;28;20615;-72
2021/07/15 10:10:55;;;;;;;3.83;1.07;;;17.30;99.90;;;;;;5074774;28;20953;-74
2021/07/15 10:13:25;;;;;;;1.30;0.83;;;17.40;99.90;;;;;;5086810;28;21005;-74
2021/07/15 10:15:52;;;;;;;0.90;0.80;;;17.40;99.90;;;;;;5080639;28;20458;-75
2021/07/15 10:18:37;;;;;;;2.10;0.90;;;17.40;99.90;;;;;;5084786;28;20841;-74
2021/07/15 10:21:05;;;;;;;1.30;0.97;;;17.40;99.90;;;;;;5077773;28;20450;-73
2021/07/15 10:23:33;;;;;;;1.73;0.80;;;17.50;99.90;;;;;;5083454;28;20451;-74
2021/07/15 10:26:03;;;;;;;1.30;0.90;;;17.50;99.90;;;;;;5074885;28;20550;-74
2021/07/15 10:28:33;;;;;;;3.77;0.80;;;17.60;99.90;;;;;;5069619;28;20450;-74
2021/07/15 10:31:03;;;;;;;1.10;0.80;;;17.60;99.90;;;;;;5068158;28;20462;-74
2021/07/15 10:33:30;;;;;;;1.00;0.90;;;17.60;99.90;;;;;;5069484;28;20479;-74
2021/07/15 10:36:01;;;;;;;0.90;0.80;;;17.70;99.90;;;;;;5069863;28;20473;-73
2021/07/15 10:38:30;;;;;;;1.37;0.83;;;17.70;99.90;;;;;;5068708;28;20969;-74
2021/07/15 10:40:58;;;;;;;1.30;0.90;;;17.70;99.90;;;;;;5068648;28;20462;-73
2021/07/15 10:43:26;;;;;;;0.90;0.80;;;17.80;99.90;;;;;;5069662;28;20501;-73
2021/07/15 10:45:57;;;;;;;1.83;1.00;;;17.80;99.90;;;;;;5069485;28;20454;-74
2021/07/15 10:48:25;;;;;;;1.30;0.90;;;17.90;99.90;;;;;;5068934;28;20455;-74
2021/07/15 10:50:52;;;;;;;0.90;0.80;;;17.90;99.90;;;;;;5068342;28;20454;-74
2021/07/15 10:53:20;;;;;;;1.00;0.80;;;17.90;99.90;;;;;;5067737;28;20933;-73
2021/07/15 10:55:47;;;;;;;1.67;0.90;;;18.00;99.90;;;;;;5069112;28;20908;-73
2021/07/15 10:58:14;;;;;;;1.30;0.90;;;18.00;99.90;;;;;;5078240;28;20454;-74
2021/07/15 11:00:51;;;;;;;1.40;1.10;;;18.10;99.90;;;;;;5078400;28;20479;-74
2021/07/15 11:03:23;;;;;;;1.00;0.80;;;18.10;99.90;;;;;;5079242;28;20476;-72
2021/07/15 11:05:54;;;;;;;1.00;0.90;;;18.30;99.90;;;;;;5076566;28;20461;-74
2021/07/15 11:08:37;;;;;;;1.83;1.07;;;18.40;99.90;;;;;;5077547;28;20469;-73
2021/07/15 11:11:04;;;;;;;1.20;0.70;;;18.40;99.90;;;;;;5073397;28;20491;-73
2021/07/15 11:13:34;;;;;;;2.80;1.20;;;18.50;99.90;;;;;;5080177;28;20466;-74
2021/07/15 11:16:04;;;;;;;1.20;1.00;;;18.60;99.90;;;;;;5080395;28;20457;-74
2021/07/15 11:18:54;;;;;;;2.40;1.17;;;18.70;99.90;;;;;;5079696;28;20494;-73
2021/07/15 11:21:36;;;;;;;1.90;0.80;;;19.00;99.90;;;;;;5074690;28;20516;-72
2021/07/15 11:24:44;;;;;;;1.00;0.80;;;19.10;99.90;;;;;;5075557;28;20498;-74
2021/07/15 11:27:31;;;;;;;1.20;1.10;;;19.10;99.90;;;;;;5039188;28;20450;-74
2021/07/15 11:29:59;;;;;;;1.63;1.13;;;19.10;99.90;;;;;;5078251;28;20453;-73
2021/07/15 11:32:28;;;;;;;0.90;0.80;;;19.10;99.90;;;;;;5078444;28;20839;-74
2021/07/15 11:34:56;;;;;;;1.83;0.90;;;19.10;99.90;;;;;;5077589;28;20481;-73
2021/07/15 11:37:39;;;;;;;1.00;0.90;;;19.00;99.90;;;;;;5079026;28;20453;-74
2021/07/15 11:40:27;;;;;;;1.23;0.93;;;19.00;99.90;;;;;;5067157;28;20450;-74
2021/07/15 11:42:54;;;;;;;1.57;0.80;;;19.00;99.90;;;;;;5076083;28;20457;-74
2021/07/15 11:45:21;;;;;;;1.10;1.00;;;19.00;99.90;;;;;;5084351;28;20478;-74
2021/07/15 11:47:51;;;;;;;1.00;0.90;;;18.90;99.90;;;;;;5081160;28;20458;-74
2021/07/15 11:50:30;;;;;;;1.10;0.90;;;18.90;99.90;;;;;;5078666;28;20455;-74
2021/07/15 11:53:16;;;;;;;1.63;0.90;;;18.70;99.90;;;;;;5076272;28;20482;-73
2021/07/15 11:55:44;;;;;;;1.10;1.00;;;18.60;99.90;;;;;;5074900;28;20469;-74
2021/07/15 11:58:45;;;;;;;1.93;1.00;;;18.60;99.90;;;;;;5076709;28;20457;-74
2021/07/15 12:01:16;;;;;;;1.00;0.90;;;18.60;99.90;;;;;;5076902;28;20478;-75
2021/07/15 12:03:58;;;;;;;1.23;1.13;;;18.60;99.90;;;;;;5074533;28;20474;-73
2021/07/15 12:06:25;;;;;;;3.20;1.30;;;18.50;99.90;;;;;;5075049;28;20455;-74
2021/07/15 12:08:52;;;;;;;1.10;0.90;;;18.50;99.90;;;;;;5078044;28;20457;-74
2021/07/15 12:11:21;;;;;;;1.13;1.03;;;18.40;99.90;;;;;;5078261;28;20450;-74
2021/07/15 12:13:51;;;;;;;1.17;1.07;;;18.30;99.90;;;;;;5077897;28;20490;-74
2021/07/15 12:16:22;;;;;;;1.00;0.90;;;18.20;99.90;;;;;;5076365;28;20976;-74
2021/07/15 12:18:50;;;;;;;1.37;1.27;;;18.20;99.90;;;;;;5077909;28;20468;-74
2021/07/15 12:21:20;;;;;;;1.40;1.10;;;18.20;99.90;;;;;;5077361;28;21352;-74
2021/07/15 12:23:49;;;;;;;1.40;1.30;;;18.10;99.90;;;;;;5077601;28;20470;-74
2021/07/15 12:26:18;;;;;;;1.03;0.93;;;18.10;99.90;;;;;;5076628;28;20486;-73
2021/07/15 12:28:46;;;;;;;1.97;1.03;;;18.10;99.90;;;;;;5077536;28;20458;-72
2021/07/15 12:31:15;;;;;;;2.20;1.00;;;18.10;99.90;;;;;;5069376;28;20508;-74
2021/07/15 12:33:44;;;;;;;1.70;1.00;;;18.10;99.90;;;;;;5079428;28;20560;-74
2021/07/15 12:36:13;;;;;;;1.27;1.17;;;18.10;99.90;;;;;;5076947;28;20468;-74
2021/07/15 12:38:43;;;;;;;1.43;1.27;;;18.20;99.90;;;;;;5085123;28;20462;-74
2021/07/15 12:41:16;;;;;;;1.63;1.40;;;18.20;99.90;;;;;;5083636;28;20837;-73
2021/07/15 12:43:53;;;;;;;1.67;1.10;;;18.20;99.90;;;;;;5067354;28;20474;-73
2021/07/15 12:46:21;;;;;;;1.77;1.30;;;18.20;99.90;;;;;;5078766;28;20462;-73
2021/07/15 12:48:51;;;;;;;1.40;1.30;;;18.30;99.90;;;;;;5065923;28;20469;-72
2021/07/15 12:51:23;;;;;;;3.03;1.17;;;18.40;99.90;;;;;;5064416;28;20477;-73
2021/07/15 12:53:52;;;;;;;1.53;1.33;;;18.40;99.90;;;;;;5065821;28;20486;-73
2021/07/15 12:56:21;;;;;;;1.27;1.17;;;18.50;99.90;;;;;;5065355;28;20459;-74
2021/07/15 12:59:10;;;;;;;1.30;1.20;;;18.50;99.90;;;;;;5074077;28;20467;-72
2021/07/15 13:01:39;;;;;;;1.67;1.20;;;18.60;99.90;;;;;;5082010;28;20976;-72